sensor_id;sensor_type;location;lat;lon;timestamp;temperature;humidity
76996;DHT22;65929;49.062;10.338;2024-01-30T00:00:35;0.00;89.90
76996;DHT22;65929;49.062;10.338;2024-01-30T00:01:36;0.00;90.00
76996;DHT22;65929;49.062;10.338;2024-01-30T00:02:37;0.00;90.10
76996;DHT22;65929;49.062;10.338;2024-01-30T00:03:38;0.00;90.30
76996;DHT22;65929;49.062;10.338;2024-01-30T00:04:39;0.10;90.30
76996;DHT22;65929;49.062;10.338;2024-01-30T00:05:41;0.10;90.30
76996;DHT22;65929;49.062;10.338;2024-01-30T00:06:42;0.10;90.30
76996;DHT22;65929;49.062;10.338;2024-01-30T00:07:43;0.20;90.30
76996;DHT22;65929;49.062;10.338;2024-01-30T00:08:44;0.20;90.10
76996;DHT22;65929;49.062;10.338;2024-01-30T00:09:47;0.20;89.90
76996;DHT22;65929;49.062;10.338;2024-01-30T00:10:49;0.10;89.70
76996;DHT22;65929;49.062;10.338;2024-01-30T00:11:50;0.10;89.70
76996;DHT22;65929;49.062;10.338;2024-01-30T00:12:51;0.00;89.40
76996;DHT22;65929;49.062;10.338;2024-01-30T00:13:53;0.00;89.50
76996;DHT22;65929;49.062;10.338;2024-01-30T00:14:55;0.00;89.40
76996;DHT22;65929;49.062;10.338;2024-01-30T00:15:56;-0.10;89.40
76996;DHT22;65929;49.062;10.338;2024-01-30T00:16:57;-0.10;89.40
76996;DHT22;65929;49.062;10.338;2024-01-30T00:17:58;-0.10;89.50
76996;DHT22;65929;49.062;10.338;2024-01-30T00:18:59;-0.10;89.60
76996;DHT22;65929;49.062;10.338;2024-01-30T00:20:00;-0.20;89.80
76996;DHT22;65929;49.062;10.338;2024-01-30T00:21:02;-0.20;90.00
76996;DHT22;65929;49.062;10.338;2024-01-30T00:22:04;-0.20;90.00
76996;DHT22;65929;49.062;10.338;2024-01-30T00:23:04;-0.30;90.00
76996;DHT22;65929;49.062;10.338;2024-01-30T00:24:05;-0.30;89.90
76996;DHT22;65929;49.062;10.338;2024-01-30T00:25:07;-0.30;90.00
76996;DHT22;65929;49.062;10.338;2024-01-30T00:26:08;-0.40;90.10
76996;DHT22;65929;49.062;10.338;2024-01-30T00:27:09;-0.40;90.10
76996;DHT22;65929;49.062;10.338;2024-01-30T00:28:10;-0.40;90.40
76996;DHT22;65929;49.062;10.338;2024-01-30T00:29:11;-0.50;90.60
76996;DHT22;65929;49.062;10.338;2024-01-30T00:30:12;-0.50;90.80
76996;DHT22;65929;49.062;10.338;2024-01-30T00:31:13;-0.50;90.90
76996;DHT22;65929;49.062;10.338;2024-01-30T00:32:14;-0.50;91.00
76996;DHT22;65929;49.062;10.338;2024-01-30T00:33:15;-0.40;91.10
76996;DHT22;65929;49.062;10.338;2024-01-30T00:34:16;-0.40;91.20
76996;DHT22;65929;49.062;10.338;2024-01-30T00:35:17;-0.40;91.10
76996;DHT22;65929;49.062;10.338;2024-01-30T00:36:20;-0.40;91.00
76996;DHT22;65929;49.062;10.338;2024-01-30T00:37:20;-0.30;91.20
76996;DHT22;65929;49.062;10.338;2024-01-30T00:38:22;-0.30;91.30
76996;DHT22;65929;49.062;10.338;2024-01-30T00:39:23;-0.30;91.40
76996;DHT22;65929;49.062;10.338;2024-01-30T00:40:24;-0.30;91.70
76996;DHT22;65929;49.062;10.338;2024-01-30T00:41:25;-0.20;91.80
76996;DHT22;65929;49.062;10.338;2024-01-30T00:42:26;-0.20;91.90
76996;DHT22;65929;49.062;10.338;2024-01-30T00:43:26;-0.20;91.90
76996;DHT22;65929;49.062;10.338;2024-01-30T00:44:27;-0.20;91.80
76996;DHT22;65929;49.062;10.338;2024-01-30T00:45:28;-0.20;91.70
76996;DHT22;65929;49.062;10.338;2024-01-30T00:46:29;-0.20;91.70
76996;DHT22;65929;49.062;10.338;2024-01-30T00:47:30;-0.20;91.60
76996;DHT22;65929;49.062;10.338;2024-01-30T00:48:33;-0.30;91.10
76996;DHT22;65929;49.062;10.338;2024-01-30T00:49:34;-0.40;89.60
76996;DHT22;65929;49.062;10.338;2024-01-30T00:50:35;-0.40;89.30
76996;DHT22;65929;49.062;10.338;2024-01-30T00:51:37;-0.50;89.20
76996;DHT22;65929;49.062;10.338;2024-01-30T00:52:38;-0.50;89.30
76996;DHT22;65929;49.062;10.338;2024-01-30T00:53:39;-0.60;89.50
76996;DHT22;65929;49.062;10.338;2024-01-30T00:54:42;-0.70;89.80
76996;DHT22;65929;49.062;10.338;2024-01-30T00:55:43;-0.70;90.30
76996;DHT22;65929;49.062;10.338;2024-01-30T00:56:44;-0.60;90.80
76996;DHT22;65929;49.062;10.338;2024-01-30T00:57:45;-0.60;91.10
76996;DHT22;65929;49.062;10.338;2024-01-30T00:58:46;-0.60;91.10
76996;DHT22;65929;49.062;10.338;2024-01-30T00:59:47;-0.60;91.10
76996;DHT22;65929;49.062;10.338;2024-01-30T01:00:48;-0.70;91.00
76996;DHT22;65929;49.062;10.338;2024-01-30T01:01:49;-0.70;91.00
76996;DHT22;65929;49.062;10.338;2024-01-30T01:02:50;-0.70;91.00
76996;DHT22;65929;49.062;10.338;2024-01-30T01:03:51;-0.70;91.10
76996;DHT22;65929;49.062;10.338;2024-01-30T01:04:52;-0.90;91.20
76996;DHT22;65929;49.062;10.338;2024-01-30T01:05:52;-0.90;91.20
76996;DHT22;65929;49.062;10.338;2024-01-30T01:06:55;-0.90;91.50
76996;DHT22;65929;49.062;10.338;2024-01-30T01:07:56;-0.90;91.60
76996;DHT22;65929;49.062;10.338;2024-01-30T01:08:57;-0.90;91.80
76996;DHT22;65929;49.062;10.338;2024-01-30T01:09:57;-0.80;92.10
76996;DHT22;65929;49.062;10.338;2024-01-30T01:10:58;-0.70;92.20
76996;DHT22;65929;49.062;10.338;2024-01-30T01:11:59;-0.70;92.40
76996;DHT22;65929;49.062;10.338;2024-01-30T01:13:00;-0.70;92.60
76996;DHT22;65929;49.062;10.338;2024-01-30T01:14:01;-0.70;92.70
76996;DHT22;65929;49.062;10.338;2024-01-30T01:15:02;-0.70;92.90
76996;DHT22;65929;49.062;10.338;2024-01-30T01:16:04;-0.60;93.00
76996;DHT22;65929;49.062;10.338;2024-01-30T01:17:04;-0.60;93.20
76996;DHT22;65929;49.062;10.338;2024-01-30T01:18:05;-0.50;93.20
76996;DHT22;65929;49.062;10.338;2024-01-30T01:19:06;-0.50;93.20
76996;DHT22;65929;49.062;10.338;2024-01-30T01:20:08;-0.50;93.10
76996;DHT22;65929;49.062;10.338;2024-01-30T01:21:09;-0.50;93.10
76996;DHT22;65929;49.062;10.338;2024-01-30T01:22:11;-0.50;93.30
76996;DHT22;65929;49.062;10.338;2024-01-30T01:23:12;-0.50;93.20
76996;DHT22;65929;49.062;10.338;2024-01-30T01:24:13;-0.50;93.20
76996;DHT22;65929;49.062;10.338;2024-01-30T01:25:14;-0.50;93.20
76996;DHT22;65929;49.062;10.338;2024-01-30T01:26:15;-0.40;93.40
76996;DHT22;65929;49.062;10.338;2024-01-30T01:27:16;-0.40;93.40
76996;DHT22;65929;49.062;10.338;2024-01-30T01:28:17;-0.40;93.30
76996;DHT22;65929;49.062;10.338;2024-01-30T01:29:19;-0.40;93.30
76996;DHT22;65929;49.062;10.338;2024-01-30T01:30:21;-0.30;93.40
76996;DHT22;65929;49.062;10.338;2024-01-30T01:31:22;-0.30;93.30
76996;DHT22;65929;49.062;10.338;2024-01-30T01:32:25;-0.30;93.10
76996;DHT22;65929;49.062;10.338;2024-01-30T01:33:26;-0.30;93.20
76996;DHT22;65929;49.062;10.338;2024-01-30T01:34:27;-0.30;93.20
76996;DHT22;65929;49.062;10.338;2024-01-30T01:35:28;-0.30;93.20
76996;DHT22;65929;49.062;10.338;2024-01-30T01:36:29;-0.30;93.10
76996;DHT22;65929;49.062;10.338;2024-01-30T01:37:31;-0.30;92.90
76996;DHT22;65929;49.062;10.338;2024-01-30T01:38:32;-0.30;92.80
76996;DHT22;65929;49.062;10.338;2024-01-30T01:39:33;-0.30;92.80
76996;DHT22;65929;49.062;10.338;2024-01-30T01:40:34;-0.30;92.70
76996;DHT22;65929;49.062;10.338;2024-01-30T01:41:35;-0.40;92.70
76996;DHT22;65929;49.062;10.338;2024-01-30T01:42:36;-0.40;92.60
76996;DHT22;65929;49.062;10.338;2024-01-30T01:43:37;-0.40;92.50
76996;DHT22;65929;49.062;10.338;2024-01-30T01:44:39;-0.40;92.50
76996;DHT22;65929;49.062;10.338;2024-01-30T01:45:40;-0.50;92.40
76996;DHT22;65929;49.062;10.338;2024-01-30T01:46:41;-0.50;92.50
76996;DHT22;65929;49.062;10.338;2024-01-30T01:47:52;-0.50;92.60
76996;DHT22;65929;49.062;10.338;2024-01-30T01:48:53;-0.50;92.60
76996;DHT22;65929;49.062;10.338;2024-01-30T01:49:55;-0.50;92.70
76996;DHT22;65929;49.062;10.338;2024-01-30T01:50:56;-0.50;92.70
76996;DHT22;65929;49.062;10.338;2024-01-30T01:51:58;-0.50;92.70
76996;DHT22;65929;49.062;10.338;2024-01-30T01:53:02;-0.60;92.70
76996;DHT22;65929;49.062;10.338;2024-01-30T01:54:04;-0.60;92.70
76996;DHT22;65929;49.062;10.338;2024-01-30T01:55:08;-0.60;92.80
76996;DHT22;65929;49.062;10.338;2024-01-30T01:56:09;-0.60;92.90
76996;DHT22;65929;49.062;10.338;2024-01-30T01:57:11;-0.60;93.00
76996;DHT22;65929;49.062;10.338;2024-01-30T01:58:13;-0.60;93.10
76996;DHT22;65929;49.062;10.338;2024-01-30T01:59:14;-0.50;93.20
76996;DHT22;65929;49.062;10.338;2024-01-30T02:00:15;-0.50;93.10
76996;DHT22;65929;49.062;10.338;2024-01-30T02:01:16;-0.50;93.20
76996;DHT22;65929;49.062;10.338;2024-01-30T02:02:19;-0.50;93.20
76996;DHT22;65929;49.062;10.338;2024-01-30T02:03:21;-0.50;93.30
76996;DHT22;65929;49.062;10.338;2024-01-30T02:04:22;-0.50;93.40
76996;DHT22;65929;49.062;10.338;2024-01-30T02:05:23;-0.50;93.40
76996;DHT22;65929;49.062;10.338;2024-01-30T02:06:25;-0.40;93.30
76996;DHT22;65929;49.062;10.338;2024-01-30T02:07:27;-0.40;93.20
76996;DHT22;65929;49.062;10.338;2024-01-30T02:08:29;-0.50;93.10
76996;DHT22;65929;49.062;10.338;2024-01-30T02:09:31;-0.50;93.00
76996;DHT22;65929;49.062;10.338;2024-01-30T02:10:32;-0.50;92.90
76996;DHT22;65929;49.062;10.338;2024-01-30T02:11:33;-0.50;92.90
76996;DHT22;65929;49.062;10.338;2024-01-30T02:12:34;-0.50;92.80
76996;DHT22;65929;49.062;10.338;2024-01-30T02:13:35;-0.50;92.80
76996;DHT22;65929;49.062;10.338;2024-01-30T02:14:44;-0.50;92.70
76996;DHT22;65929;49.062;10.338;2024-01-30T02:15:49;-0.60;92.80
76996;DHT22;65929;49.062;10.338;2024-01-30T02:16:50;-0.60;92.90
76996;DHT22;65929;49.062;10.338;2024-01-30T02:17:51;-0.50;93.00
76996;DHT22;65929;49.062;10.338;2024-01-30T02:18:52;-0.50;93.00
76996;DHT22;65929;49.062;10.338;2024-01-30T02:19:53;-0.50;93.00
76996;DHT22;65929;49.062;10.338;2024-01-30T02:20:56;-0.50;93.00
76996;DHT22;65929;49.062;10.338;2024-01-30T02:22:00;-0.60;92.90
76996;DHT22;65929;49.062;10.338;2024-01-30T02:23:01;-0.60;93.00
76996;DHT22;65929;49.062;10.338;2024-01-30T02:24:03;-0.60;93.00
76996;DHT22;65929;49.062;10.338;2024-01-30T02:25:04;-0.60;92.90
76996;DHT22;65929;49.062;10.338;2024-01-30T02:26:05;-0.60;92.80
76996;DHT22;65929;49.062;10.338;2024-01-30T02:27:06;-0.60;92.70
76996;DHT22;65929;49.062;10.338;2024-01-30T02:28:07;-0.70;92.60
76996;DHT22;65929;49.062;10.338;2024-01-30T02:29:08;-0.70;92.50
76996;DHT22;65929;49.062;10.338;2024-01-30T02:30:10;-0.70;92.30
76996;DHT22;65929;49.062;10.338;2024-01-30T02:31:11;-0.70;92.20
76996;DHT22;65929;49.062;10.338;2024-01-30T02:32:12;-0.80;92.10
76996;DHT22;65929;49.062;10.338;2024-01-30T02:33:13;-0.90;92.10
76996;DHT22;65929;49.062;10.338;2024-01-30T02:34:14;-0.90;92.10
76996;DHT22;65929;49.062;10.338;2024-01-30T02:35:15;-0.90;92.20
76996;DHT22;65929;49.062;10.338;2024-01-30T02:36:16;-0.90;92.20
76996;DHT22;65929;49.062;10.338;2024-01-30T02:37:18;-0.90;92.20
76996;DHT22;65929;49.062;10.338;2024-01-30T02:38:19;-0.90;92.30
76996;DHT22;65929;49.062;10.338;2024-01-30T02:39:20;-0.90;92.50
76996;DHT22;65929;49.062;10.338;2024-01-30T02:40:21;-0.90;92.50
76996;DHT22;65929;49.062;10.338;2024-01-30T02:41:22;-0.90;92.50
76996;DHT22;65929;49.062;10.338;2024-01-30T02:42:23;-0.90;92.50
76996;DHT22;65929;49.062;10.338;2024-01-30T02:43:24;-0.90;92.70
76996;DHT22;65929;49.062;10.338;2024-01-30T02:44:25;-0.90;92.80
76996;DHT22;65929;49.062;10.338;2024-01-30T02:45:26;-0.90;92.80
76996;DHT22;65929;49.062;10.338;2024-01-30T02:46:27;-0.90;92.80
76996;DHT22;65929;49.062;10.338;2024-01-30T02:47:28;-0.80;92.90
76996;DHT22;65929;49.062;10.338;2024-01-30T02:48:28;-0.80;93.00
76996;DHT22;65929;49.062;10.338;2024-01-30T02:49:29;-0.80;93.00
76996;DHT22;65929;49.062;10.338;2024-01-30T02:50:30;-0.70;93.10
76996;DHT22;65929;49.062;10.338;2024-01-30T02:51:31;-0.70;93.30
76996;DHT22;65929;49.062;10.338;2024-01-30T02:52:34;-0.70;93.40
76996;DHT22;65929;49.062;10.338;2024-01-30T02:53:35;-0.70;93.40
76996;DHT22;65929;49.062;10.338;2024-01-30T02:54:36;-0.70;93.40
76996;DHT22;65929;49.062;10.338;2024-01-30T02:55:37;-0.70;93.60
76996;DHT22;65929;49.062;10.338;2024-01-30T02:56:38;-0.70;93.70
76996;DHT22;65929;49.062;10.338;2024-01-30T02:57:39;-0.70;93.70
76996;DHT22;65929;49.062;10.338;2024-01-30T02:58:40;-0.70;93.70
76996;DHT22;65929;49.062;10.338;2024-01-30T02:59:41;-0.70;93.90
76996;DHT22;65929;49.062;10.338;2024-01-30T03:00:42;-0.60;93.90
76996;DHT22;65929;49.062;10.338;2024-01-30T03:01:43;-0.60;93.90
76996;DHT22;65929;49.062;10.338;2024-01-30T03:02:44;-0.60;93.90
76996;DHT22;65929;49.062;10.338;2024-01-30T03:03:45;-0.60;93.80
76996;DHT22;65929;49.062;10.338;2024-01-30T03:04:46;-0.60;93.80
76996;DHT22;65929;49.062;10.338;2024-01-30T03:05:47;-0.60;93.70
76996;DHT22;65929;49.062;10.338;2024-01-30T03:06:48;-0.60;93.50
76996;DHT22;65929;49.062;10.338;2024-01-30T03:07:51;-0.60;93.40
76996;DHT22;65929;49.062;10.338;2024-01-30T03:08:52;-0.70;93.20
76996;DHT22;65929;49.062;10.338;2024-01-30T03:09:53;-0.70;93.10
76996;DHT22;65929;49.062;10.338;2024-01-30T03:10:56;-0.70;92.90
76996;DHT22;65929;49.062;10.338;2024-01-30T03:11:57;-0.80;92.70
76996;DHT22;65929;49.062;10.338;2024-01-30T03:12:58;-0.90;92.40
76996;DHT22;65929;49.062;10.338;2024-01-30T03:13:58;-0.90;92.30
76996;DHT22;65929;49.062;10.338;2024-01-30T03:14:59;-1.00;92.20
76996;DHT22;65929;49.062;10.338;2024-01-30T03:16:00;-1.10;91.90
76996;DHT22;65929;49.062;10.338;2024-01-30T03:17:01;-1.10;91.80
76996;DHT22;65929;49.062;10.338;2024-01-30T03:18:03;-1.20;91.70
76996;DHT22;65929;49.062;10.338;2024-01-30T03:19:06;-1.20;91.80
76996;DHT22;65929;49.062;10.338;2024-01-30T03:20:08;-1.20;91.80
76996;DHT22;65929;49.062;10.338;2024-01-30T03:21:10;-1.30;91.70
76996;DHT22;65929;49.062;10.338;2024-01-30T03:22:10;-1.30;91.70
76996;DHT22;65929;49.062;10.338;2024-01-30T03:23:13;-1.30;91.90
76996;DHT22;65929;49.062;10.338;2024-01-30T03:24:14;-1.40;92.00
76996;DHT22;65929;49.062;10.338;2024-01-30T03:25:15;-1.40;92.10
76996;DHT22;65929;49.062;10.338;2024-01-30T03:26:16;-1.50;92.20
76996;DHT22;65929;49.062;10.338;2024-01-30T03:27:17;-1.50;92.30
76996;DHT22;65929;49.062;10.338;2024-01-30T03:28:18;-1.50;92.50
76996;DHT22;65929;49.062;10.338;2024-01-30T03:29:19;-1.50;92.80
76996;DHT22;65929;49.062;10.338;2024-01-30T03:30:20;-1.50;93.00
76996;DHT22;65929;49.062;10.338;2024-01-30T03:31:20;-1.50;93.10
76996;DHT22;65929;49.062;10.338;2024-01-30T03:32:21;-1.50;93.30
76996;DHT22;65929;49.062;10.338;2024-01-30T03:33:22;-1.50;93.40
76996;DHT22;65929;49.062;10.338;2024-01-30T03:34:23;-1.50;93.40
76996;DHT22;65929;49.062;10.338;2024-01-30T03:35:24;-1.50;93.50
76996;DHT22;65929;49.062;10.338;2024-01-30T03:36:25;-1.50;93.50
76996;DHT22;65929;49.062;10.338;2024-01-30T03:37:26;-1.50;93.70
76996;DHT22;65929;49.062;10.338;2024-01-30T03:38:28;-1.50;93.70
76996;DHT22;65929;49.062;10.338;2024-01-30T03:39:30;-1.50;93.90
76996;DHT22;65929;49.062;10.338;2024-01-30T03:40:31;-1.50;94.00
76996;DHT22;65929;49.062;10.338;2024-01-30T03:41:32;-1.50;94.00
76996;DHT22;65929;49.062;10.338;2024-01-30T03:42:33;-1.50;94.00
76996;DHT22;65929;49.062;10.338;2024-01-30T03:43:34;-1.50;94.10
76996;DHT22;65929;49.062;10.338;2024-01-30T03:44:35;-1.50;94.20
76996;DHT22;65929;49.062;10.338;2024-01-30T03:45:36;-1.50;94.40
76996;DHT22;65929;49.062;10.338;2024-01-30T03:46:37;-1.40;94.70
76996;DHT22;65929;49.062;10.338;2024-01-30T03:47:37;-1.30;94.80
76996;DHT22;65929;49.062;10.338;2024-01-30T03:48:38;-1.30;94.90
76996;DHT22;65929;49.062;10.338;2024-01-30T03:49:40;-1.30;94.90
76996;DHT22;65929;49.062;10.338;2024-01-30T03:50:41;-1.30;94.90
76996;DHT22;65929;49.062;10.338;2024-01-30T03:51:42;-1.30;94.90
76996;DHT22;65929;49.062;10.338;2024-01-30T03:52:42;-1.30;94.90
76996;DHT22;65929;49.062;10.338;2024-01-30T03:53:45;-1.30;94.90
76996;DHT22;65929;49.062;10.338;2024-01-30T03:54:49;-1.30;94.80
76996;DHT22;65929;49.062;10.338;2024-01-30T03:55:50;-1.30;94.80
76996;DHT22;65929;49.062;10.338;2024-01-30T03:56:51;-1.40;94.80
76996;DHT22;65929;49.062;10.338;2024-01-30T03:57:52;-1.40;94.90
76996;DHT22;65929;49.062;10.338;2024-01-30T03:58:53;-1.50;94.90
76996;DHT22;65929;49.062;10.338;2024-01-30T03:59:53;-1.50;94.80
76996;DHT22;65929;49.062;10.338;2024-01-30T04:00:54;-1.50;94.80
76996;DHT22;65929;49.062;10.338;2024-01-30T04:01:55;-1.50;94.90
76996;DHT22;65929;49.062;10.338;2024-01-30T04:02:56;-1.50;94.90
76996;DHT22;65929;49.062;10.338;2024-01-30T04:03:57;-1.50;94.90
76996;DHT22;65929;49.062;10.338;2024-01-30T04:04:58;-1.50;94.90
76996;DHT22;65929;49.062;10.338;2024-01-30T04:05:59;-1.50;95.00
76996;DHT22;65929;49.062;10.338;2024-01-30T04:07:00;-1.50;95.00
76996;DHT22;65929;49.062;10.338;2024-01-30T04:08:01;-1.50;95.10
76996;DHT22;65929;49.062;10.338;2024-01-30T04:09:03;-1.50;95.20
76996;DHT22;65929;49.062;10.338;2024-01-30T04:10:05;-1.50;95.30
76996;DHT22;65929;49.062;10.338;2024-01-30T04:11:06;-1.40;95.50
76996;DHT22;65929;49.062;10.338;2024-01-30T04:12:07;-1.30;95.60
76996;DHT22;65929;49.062;10.338;2024-01-30T04:13:08;-1.30;95.60
76996;DHT22;65929;49.062;10.338;2024-01-30T04:14:10;-1.30;95.70
76996;DHT22;65929;49.062;10.338;2024-01-30T04:15:11;-1.30;95.70
76996;DHT22;65929;49.062;10.338;2024-01-30T04:16:19;-1.20;95.70
76996;DHT22;65929;49.062;10.338;2024-01-30T04:17:21;-1.20;95.80
76996;DHT22;65929;49.062;10.338;2024-01-30T04:18:21;-1.10;95.90
76996;DHT22;65929;49.062;10.338;2024-01-30T04:19:22;-1.10;95.90
76996;DHT22;65929;49.062;10.338;2024-01-30T04:20:23;-1.10;96.00
76996;DHT22;65929;49.062;10.338;2024-01-30T04:21:24;-1.10;96.00
76996;DHT22;65929;49.062;10.338;2024-01-30T04:22:25;-1.10;96.00
76996;DHT22;65929;49.062;10.338;2024-01-30T04:23:26;-1.10;95.90
76996;DHT22;65929;49.062;10.338;2024-01-30T04:24:28;-1.10;95.80
76996;DHT22;65929;49.062;10.338;2024-01-30T04:25:29;-1.10;95.70
76996;DHT22;65929;49.062;10.338;2024-01-30T04:26:30;-1.30;95.50
76996;DHT22;65929;49.062;10.338;2024-01-30T04:27:31;-1.30;95.40
76996;DHT22;65929;49.062;10.338;2024-01-30T04:28:32;-1.30;95.30
76996;DHT22;65929;49.062;10.338;2024-01-30T04:29:33;-1.40;95.20
76996;DHT22;65929;49.062;10.338;2024-01-30T04:30:34;-1.50;95.10
76996;DHT22;65929;49.062;10.338;2024-01-30T04:31:36;-1.50;95.00
76996;DHT22;65929;49.062;10.338;2024-01-30T04:32:37;-1.50;95.00
76996;DHT22;65929;49.062;10.338;2024-01-30T04:33:38;-1.50;94.90
76996;DHT22;65929;49.062;10.338;2024-01-30T04:34:39;-1.50;94.80
76996;DHT22;65929;49.062;10.338;2024-01-30T04:35:40;-1.50;94.70
76996;DHT22;65929;49.062;10.338;2024-01-30T04:36:44;-1.60;94.70
76996;DHT22;65929;49.062;10.338;2024-01-30T04:37:46;-1.60;94.60
76996;DHT22;65929;49.062;10.338;2024-01-30T04:38:47;-1.60;94.60
76996;DHT22;65929;49.062;10.338;2024-01-30T04:39:49;-1.60;94.60
76996;DHT22;65929;49.062;10.338;2024-01-30T04:40:50;-1.60;94.60
76996;DHT22;65929;49.062;10.338;2024-01-30T04:41:51;-1.60;94.60
76996;DHT22;65929;49.062;10.338;2024-01-30T04:42:52;-1.60;94.60
76996;DHT22;65929;49.062;10.338;2024-01-30T04:43:53;-1.60;94.60
76996;DHT22;65929;49.062;10.338;2024-01-30T04:44:54;-1.60;94.70
76996;DHT22;65929;49.062;10.338;2024-01-30T04:45:55;-1.60;94.70
76996;DHT22;65929;49.062;10.338;2024-01-30T04:46:56;-1.50;94.80
76996;DHT22;65929;49.062;10.338;2024-01-30T04:47:59;-1.50;94.90
76996;DHT22;65929;49.062;10.338;2024-01-30T04:49:00;-1.50;95.00
76996;DHT22;65929;49.062;10.338;2024-01-30T04:50:01;-1.50;95.00
76996;DHT22;65929;49.062;10.338;2024-01-30T04:51:05;-1.50;95.00
76996;DHT22;65929;49.062;10.338;2024-01-30T04:52:06;-1.50;95.10
76996;DHT22;65929;49.062;10.338;2024-01-30T04:53:07;-1.50;95.10
76996;DHT22;65929;49.062;10.338;2024-01-30T04:54:08;-1.50;95.00
76996;DHT22;65929;49.062;10.338;2024-01-30T04:55:10;-1.50;95.10
76996;DHT22;65929;49.062;10.338;2024-01-30T04:56:11;-1.40;95.20
76996;DHT22;65929;49.062;10.338;2024-01-30T04:57:12;-1.40;95.20
76996;DHT22;65929;49.062;10.338;2024-01-30T04:58:13;-1.40;95.20
76996;DHT22;65929;49.062;10.338;2024-01-30T04:59:14;-1.40;95.10
76996;DHT22;65929;49.062;10.338;2024-01-30T05:00:15;-1.40;95.10
76996;DHT22;65929;49.062;10.338;2024-01-30T05:01:17;-1.40;95.10
76996;DHT22;65929;49.062;10.338;2024-01-30T05:02:18;-1.40;95.10
76996;DHT22;65929;49.062;10.338;2024-01-30T05:03:19;-1.40;95.20
76996;DHT22;65929;49.062;10.338;2024-01-30T05:04:20;-1.40;95.20
76996;DHT22;65929;49.062;10.338;2024-01-30T05:05:22;-1.40;95.10
76996;DHT22;65929;49.062;10.338;2024-01-30T05:06:26;-1.40;95.20
76996;DHT22;65929;49.062;10.338;2024-01-30T05:07:27;-1.40;95.10
76996;DHT22;65929;49.062;10.338;2024-01-30T05:08:29;-1.40;95.10
76996;DHT22;65929;49.062;10.338;2024-01-30T05:09:30;-1.40;95.20
76996;DHT22;65929;49.062;10.338;2024-01-30T05:10:32;-1.40;95.20
76996;DHT22;65929;49.062;10.338;2024-01-30T05:11:37;-1.30;95.20
76996;DHT22;65929;49.062;10.338;2024-01-30T05:12:38;-1.30;95.20
76996;DHT22;65929;49.062;10.338;2024-01-30T05:13:39;-1.40;95.20
76996;DHT22;65929;49.062;10.338;2024-01-30T05:14:40;-1.30;95.20
76996;DHT22;65929;49.062;10.338;2024-01-30T05:15:41;-1.30;95.20
76996;DHT22;65929;49.062;10.338;2024-01-30T05:16:42;-1.30;95.20
76996;DHT22;65929;49.062;10.338;2024-01-30T05:17:47;-1.30;95.20
76996;DHT22;65929;49.062;10.338;2024-01-30T05:18:48;-1.30;95.20
76996;DHT22;65929;49.062;10.338;2024-01-30T05:19:49;-1.30;95.20
76996;DHT22;65929;49.062;10.338;2024-01-30T05:20:50;-1.30;95.20
76996;DHT22;65929;49.062;10.338;2024-01-30T05:21:51;-1.30;95.20
76996;DHT22;65929;49.062;10.338;2024-01-30T05:22:52;-1.30;95.20
76996;DHT22;65929;49.062;10.338;2024-01-30T05:23:53;-1.30;95.20
76996;DHT22;65929;49.062;10.338;2024-01-30T05:24:54;-1.30;95.20
76996;DHT22;65929;49.062;10.338;2024-01-30T05:25:56;-1.30;95.20
76996;DHT22;65929;49.062;10.338;2024-01-30T05:26:57;-1.30;95.20
76996;DHT22;65929;49.062;10.338;2024-01-30T05:27:58;-1.30;95.20
76996;DHT22;65929;49.062;10.338;2024-01-30T05:28:59;-1.30;95.20
76996;DHT22;65929;49.062;10.338;2024-01-30T05:30:00;-1.30;95.30
76996;DHT22;65929;49.062;10.338;2024-01-30T05:31:01;-1.30;95.30
76996;DHT22;65929;49.062;10.338;2024-01-30T05:32:02;-1.20;95.30
76996;DHT22;65929;49.062;10.338;2024-01-30T05:33:03;-1.20;95.30
76996;DHT22;65929;49.062;10.338;2024-01-30T05:34:04;-1.20;95.40
76996;DHT22;65929;49.062;10.338;2024-01-30T05:35:07;-1.20;95.40
76996;DHT22;65929;49.062;10.338;2024-01-30T05:36:11;-1.20;95.40
76996;DHT22;65929;49.062;10.338;2024-01-30T05:37:12;-1.20;95.40
76996;DHT22;65929;49.062;10.338;2024-01-30T05:38:17;-1.20;95.30
76996;DHT22;65929;49.062;10.338;2024-01-30T05:39:18;-1.10;95.40
76996;DHT22;65929;49.062;10.338;2024-01-30T05:40:19;-1.10;95.50
76996;DHT22;65929;49.062;10.338;2024-01-30T05:41:21;-1.10;95.40
76996;DHT22;65929;49.062;10.338;2024-01-30T05:42:22;-1.20;95.40
76996;DHT22;65929;49.062;10.338;2024-01-30T05:43:23;-1.20;95.40
76996;DHT22;65929;49.062;10.338;2024-01-30T05:44:24;-1.20;95.40
76996;DHT22;65929;49.062;10.338;2024-01-30T05:45:25;-1.20;95.50
76996;DHT22;65929;49.062;10.338;2024-01-30T05:46:26;-1.20;95.40
76996;DHT22;65929;49.062;10.338;2024-01-30T05:47:27;-1.30;95.40
76996;DHT22;65929;49.062;10.338;2024-01-30T05:48:28;-1.30;95.30
76996;DHT22;65929;49.062;10.338;2024-01-30T05:49:29;-1.30;95.20
76996;DHT22;65929;49.062;10.338;2024-01-30T05:50:30;-1.30;95.20
76996;DHT22;65929;49.062;10.338;2024-01-30T05:51:31;-1.30;95.20
76996;DHT22;65929;49.062;10.338;2024-01-30T05:52:32;-1.30;95.20
76996;DHT22;65929;49.062;10.338;2024-01-30T05:53:33;-1.30;95.30
76996;DHT22;65929;49.062;10.338;2024-01-30T05:54:34;-1.30;95.20
76996;DHT22;65929;49.062;10.338;2024-01-30T05:55:35;-1.20;95.30
76996;DHT22;65929;49.062;10.338;2024-01-30T05:56:37;-1.20;95.20
76996;DHT22;65929;49.062;10.338;2024-01-30T05:57:38;-1.10;95.30
76996;DHT22;65929;49.062;10.338;2024-01-30T05:58:39;-1.10;95.20
76996;DHT22;65929;49.062;10.338;2024-01-30T05:59:40;-1.10;95.10
76996;DHT22;65929;49.062;10.338;2024-01-30T06:00:41;-1.20;94.90
76996;DHT22;65929;49.062;10.338;2024-01-30T06:01:45;-1.20;94.80
76996;DHT22;65929;49.062;10.338;2024-01-30T06:02:47;-1.30;94.80
76996;DHT22;65929;49.062;10.338;2024-01-30T06:03:48;-1.30;94.70
76996;DHT22;65929;49.062;10.338;2024-01-30T06:04:49;-1.30;94.60
76996;DHT22;65929;49.062;10.338;2024-01-30T06:05:49;-1.30;94.60
76996;DHT22;65929;49.062;10.338;2024-01-30T06:06:50;-1.30;94.60
76996;DHT22;65929;49.062;10.338;2024-01-30T06:07:51;-1.30;94.60
76996;DHT22;65929;49.062;10.338;2024-01-30T06:08:52;-1.30;94.60
76996;DHT22;65929;49.062;10.338;2024-01-30T06:09:55;-1.30;94.60
76996;DHT22;65929;49.062;10.338;2024-01-30T06:10:56;-1.30;94.60
76996;DHT22;65929;49.062;10.338;2024-01-30T06:11:59;-1.30;94.70
76996;DHT22;65929;49.062;10.338;2024-01-30T06:12:59;-1.30;94.70
76996;DHT22;65929;49.062;10.338;2024-01-30T06:14:01;-1.30;94.70
76996;DHT22;65929;49.062;10.338;2024-01-30T06:15:02;-1.30;94.60
76996;DHT22;65929;49.062;10.338;2024-01-30T06:16:03;-1.20;94.70
76996;DHT22;65929;49.062;10.338;2024-01-30T06:17:04;-1.20;94.80
76996;DHT22;65929;49.062;10.338;2024-01-30T06:18:05;-1.10;94.80
76996;DHT22;65929;49.062;10.338;2024-01-30T06:19:06;-1.10;94.90
76996;DHT22;65929;49.062;10.338;2024-01-30T06:20:07;-1.10;94.90
76996;DHT22;65929;49.062;10.338;2024-01-30T06:21:08;-1.10;94.90
76996;DHT22;65929;49.062;10.338;2024-01-30T06:22:09;-1.10;95.00